createdAt,value
2023-02-11T00:01:20.914Z,10.95
2023-02-11T00:03:48.447Z,11.95
2023-02-11T00:06:16.490Z,12.38
2023-02-11T00:08:43.986Z,12.18
2023-02-11T00:11:17.038Z,12.68
2023-02-11T00:13:45.693Z,12.98
2023-02-11T00:16:16.023Z,12.85
2023-02-11T00:18:43.615Z,13.25
2023-02-11T00:21:14.649Z,13.65
2023-02-11T00:23:42.749Z,12.95
2023-02-11T00:26:21.842Z,13.05
2023-02-11T00:28:50.820Z,12.95
2023-02-11T00:31:20.709Z,13.70
2023-02-11T00:33:49.618Z,13.52
2023-02-11T00:36:21.227Z,12.93
2023-02-11T00:38:50.133Z,12.63
2023-02-11T00:41:18.622Z,12.73
2023-02-11T00:43:46.847Z,12.20
2023-02-11T00:46:15.386Z,12.23
2023-02-11T00:48:43.426Z,12.15
2023-02-11T00:51:11.772Z,12.45
2023-02-11T00:53:39.445Z,11.48
2023-02-11T00:56:08.814Z,11.20
2023-02-11T00:58:37.037Z,11.45
2023-02-11T01:01:05.045Z,11.50
2023-02-11T01:03:32.612Z,10.48
2023-02-11T01:06:00.259Z,11.07
2023-02-11T01:08:27.913Z,10.90
2023-02-11T01:11:00.506Z,10.60
2023-02-11T01:13:29.592Z,11.77
2023-02-11T01:15:57.264Z,11.93
2023-02-11T01:18:25.452Z,12.35
2023-02-11T01:20:53.937Z,12.20
2023-02-11T01:23:22.022Z,12.85
2023-02-11T01:30:46.716Z,12.68
2023-02-11T01:33:14.825Z,13.25
2023-02-11T01:35:42.849Z,14.70
2023-02-11T01:38:21.618Z,13.70
2023-02-11T01:40:55.538Z,14.85
2023-02-11T01:43:24.844Z,15.70
2023-02-11T01:46:02.610Z,16.42
2023-02-11T01:48:36.312Z,15.80
2023-02-11T01:51:08.988Z,16.30
2023-02-11T01:53:56.490Z,14.80
2023-02-11T01:56:46.123Z,17.05
2023-02-11T01:59:24.340Z,16.85
2023-02-11T02:01:58.812Z,16.52
2023-02-11T02:04:31.715Z,16.52
2023-02-11T02:07:11.780Z,17.25
2023-02-11T02:09:44.765Z,17.65
2023-02-11T02:12:12.234Z,18.05
2023-02-11T02:14:41.777Z,16.17
2023-02-11T02:17:24.006Z,16.65
2023-02-11T02:20:30.447Z,16.83
2023-02-11T02:23:23.491Z,16.58
2023-02-11T02:25:59.963Z,16.63
2023-02-11T02:28:42.519Z,16.95
2023-02-11T02:31:40.320Z,15.85
2023-02-11T02:36:55.422Z,16.60
2023-02-11T02:39:27.764Z,16.05
2023-02-11T02:41:56.624Z,15.95
2023-02-11T02:44:24.616Z,16.48
2023-02-11T02:46:52.389Z,14.95
2023-02-11T02:49:19.848Z,16.25
2023-02-11T02:52:02.755Z,16.98
2023-02-11T02:54:48.361Z,16.05
2023-02-11T02:57:30.577Z,16.45
2023-02-11T03:00:11.997Z,16.27
2023-02-11T03:03:02.174Z,16.08
2023-02-11T03:05:38.154Z,16.25
2023-02-11T03:08:28.031Z,16.45
2023-02-11T03:10:57.512Z,16.35
2023-02-11T03:13:29.631Z,15.18
2023-02-11T03:15:59.116Z,16.35
2023-02-11T03:18:29.439Z,16.20
2023-02-11T03:20:58.041Z,17.27
2023-02-11T03:23:32.988Z,15.95
2023-02-11T03:26:12.354Z,16.83
2023-02-11T03:28:50.962Z,16.58
2023-02-11T03:31:37.085Z,17.50
2023-02-11T03:34:18.301Z,17.20
2023-02-11T03:36:52.060Z,17.10
2023-02-11T03:39:34.945Z,16.63
2023-02-11T03:42:04.034Z,17.35
2023-02-11T03:44:38.933Z,17.83
2023-02-11T03:47:09.418Z,16.83
2023-02-11T03:49:39.841Z,17.88
2023-02-11T03:52:11.236Z,17.70
2023-02-11T03:54:40.797Z,18.58
2023-02-11T03:57:08.989Z,17.40
2023-02-11T03:59:56.842Z,18.80
2023-02-11T04:02:31.742Z,18.85
2023-02-11T04:04:59.450Z,19.40
2023-02-11T04:07:27.248Z,19.63
2023-02-11T04:09:54.948Z,20.80
2023-02-11T04:12:22.434Z,20.25
2023-02-11T04:14:49.877Z,21.48
2023-02-11T04:17:17.608Z,21.15
2023-02-11T04:19:45.279Z,21.48
2023-02-11T04:22:13.078Z,20.65
2023-02-11T04:24:40.473Z,21.13
2023-02-11T04:27:07.854Z,21.27
2023-02-11T04:29:35.448Z,20.25
2023-02-11T04:32:02.989Z,19.85
2023-02-11T04:34:30.515Z,21.48
2023-02-11T04:36:57.972Z,20.00
2023-02-11T04:39:25.506Z,20.92
2023-02-11T04:41:52.977Z,20.83
2023-02-11T04:44:20.459Z,20.55
2023-02-11T04:46:48.249Z,20.38
2023-02-11T04:49:16.523Z,20.38
2023-02-11T04:51:46.993Z,18.17
2023-02-11T04:54:17.023Z,18.75
2023-02-11T04:59:13.279Z,17.75
2023-02-11T05:01:40.909Z,17.45
2023-02-11T05:04:08.837Z,17.33
2023-02-11T05:06:39.437Z,17.40
2023-02-11T05:09:06.994Z,15.82
2023-02-11T05:11:34.555Z,16.95
2023-02-11T05:14:02.053Z,16.80
2023-02-11T05:16:29.524Z,16.30
2023-02-11T05:18:57.092Z,15.25
2023-02-11T05:21:24.841Z,15.05
2023-02-11T05:23:52.285Z,15.52
2023-02-11T05:26:19.707Z,14.20
2023-02-11T05:28:47.127Z,15.40
2023-02-11T05:31:14.963Z,15.40
2023-02-11T05:33:42.953Z,14.00
2023-02-11T05:36:13.189Z,14.57
2023-02-11T05:38:42.531Z,13.77
2023-02-11T05:41:11.118Z,13.48
2023-02-11T05:43:38.651Z,13.40
2023-02-11T05:46:06.424Z,13.50
2023-02-11T05:48:33.944Z,12.75
2023-02-11T05:51:01.397Z,12.98
2023-02-11T05:53:28.860Z,12.45
2023-02-11T05:55:56.323Z,12.25
2023-02-11T05:58:23.743Z,11.38
2023-02-11T06:00:51.346Z,11.70
2023-02-11T06:03:18.866Z,12.07
2023-02-11T06:05:46.974Z,10.90
2023-02-11T06:10:44.922Z,10.68
2023-02-11T06:13:12.435Z,10.10
2023-02-11T06:15:39.892Z,10.50
2023-02-11T06:18:07.986Z,9.95
2023-02-11T06:20:35.630Z,10.13
2023-02-11T06:23:03.090Z,10.25
2023-02-11T06:25:30.542Z,9.35
2023-02-11T06:27:58.056Z,9.02
2023-02-11T06:30:25.668Z,9.90
2023-02-11T06:32:53.175Z,9.82
2023-02-11T06:35:20.645Z,9.73
2023-02-11T06:37:49.656Z,8.73
2023-02-11T06:40:17.250Z,9.55
2023-02-11T06:42:44.674Z,9.43
2023-02-11T06:45:13.289Z,8.90
2023-02-11T06:47:40.947Z,8.50
2023-02-11T06:50:12.678Z,8.18
2023-02-11T06:52:40.391Z,8.43
2023-02-11T06:55:08.149Z,8.35
2023-02-11T06:57:35.689Z,8.63
2023-02-11T07:00:05.428Z,8.45
2023-02-11T07:02:33.334Z,8.25
2023-02-11T07:05:00.951Z,8.45
2023-02-11T07:07:28.696Z,7.97
2023-02-11T07:09:56.130Z,7.70
2023-02-11T07:12:23.613Z,7.95
2023-02-11T07:14:51.041Z,8.35
2023-02-11T07:17:18.478Z,7.25
2023-02-11T07:19:45.928Z,7.97
2023-02-11T07:22:13.622Z,7.40
2023-02-11T07:24:41.055Z,7.55
2023-02-11T07:27:09.018Z,7.20
2023-02-11T07:29:36.524Z,7.45
2023-02-11T07:32:04.225Z,7.38
2023-02-11T07:34:31.897Z,8.05
2023-02-11T07:36:59.560Z,7.28
2023-02-11T07:39:29.716Z,7.47
2023-02-11T07:41:57.230Z,7.25
2023-02-11T07:46:53.250Z,6.63
2023-02-11T07:49:20.794Z,7.28
2023-02-11T07:51:49.154Z,6.18
2023-02-11T07:54:17.020Z,6.13
2023-02-11T07:56:44.473Z,6.07
2023-02-11T07:59:12.551Z,5.63
2023-02-11T08:04:07.276Z,5.63
2023-02-11T08:06:35.386Z,5.22
2023-02-11T08:11:34.922Z,4.60
2023-02-11T08:14:04.669Z,5.20
2023-02-11T08:16:35.343Z,4.70
2023-02-11T08:19:06.341Z,4.65
2023-02-11T08:21:33.870Z,4.32
2023-02-11T08:24:03.262Z,4.10
2023-02-11T08:26:34.370Z,4.70
2023-02-11T08:29:06.817Z,4.32
2023-02-11T08:31:37.364Z,4.20
2023-02-11T08:34:05.738Z,3.70
2023-02-11T08:36:35.968Z,4.00
2023-02-11T08:39:18.496Z,3.83
2023-02-11T08:41:49.602Z,3.50
2023-02-11T08:44:18.805Z,3.95
2023-02-11T08:46:46.830Z,3.78
2023-02-11T08:49:15.033Z,3.67
2023-02-11T08:54:10.510Z,3.10
2023-02-11T08:56:38.533Z,3.03
2023-02-11T08:59:07.189Z,2.88
2023-02-11T09:01:36.232Z,3.10
2023-02-11T09:04:03.673Z,2.53
2023-02-11T09:06:32.279Z,2.65
2023-02-11T09:08:59.838Z,2.55
2023-02-11T09:11:36.765Z,2.95
2023-02-11T09:14:05.015Z,2.22
2023-02-11T09:16:35.241Z,2.00
2023-02-11T09:19:04.857Z,2.15
2023-02-11T09:21:32.314Z,1.95
2023-02-11T09:23:59.810Z,2.60
2023-02-11T09:26:30.624Z,2.28
2023-02-11T09:28:58.775Z,2.45
2023-02-11T09:33:58.433Z,2.63
2023-02-11T09:36:28.996Z,2.03
2023-02-11T09:38:58.780Z,2.10
2023-02-11T09:41:44.850Z,2.28
2023-02-11T09:44:23.102Z,2.88
2023-02-11T09:46:55.876Z,2.40
2023-02-11T09:49:34.508Z,2.33
2023-02-11T09:52:15.185Z,2.13
2023-02-11T09:55:00.383Z,2.42
2023-02-11T09:57:37.489Z,2.15
2023-02-11T10:00:21.683Z,2.50
2023-02-11T10:03:25.946Z,2.05
2023-02-11T10:06:15.836Z,2.42
2023-02-11T10:08:51.923Z,2.10
2023-02-11T10:11:46.170Z,2.30
2023-02-11T10:14:53.873Z,2.17
2023-02-11T10:20:32.463Z,2.50
2023-02-11T10:23:39.257Z,2.28
2023-02-11T10:26:16.633Z,2.45
2023-02-11T10:28:50.980Z,2.53
2023-02-11T10:31:21.508Z,2.42
2023-02-11T10:34:11.330Z,2.20
2023-02-11T10:36:42.904Z,1.80
2023-02-11T10:39:21.790Z,1.90
2023-02-11T10:42:02.896Z,2.35
2023-02-11T10:44:36.311Z,2.33
2023-02-11T10:47:18.879Z,2.10
2023-02-11T10:49:49.070Z,1.70
2023-02-11T10:52:21.434Z,2.20
2023-02-11T10:54:59.648Z,2.40
2023-02-11T10:57:34.923Z,1.80
2023-02-11T11:00:38.898Z,1.80
2023-02-11T11:03:22.855Z,1.75
2023-02-11T11:05:59.826Z,1.80
2023-02-11T11:08:50.460Z,1.80
2023-02-11T11:11:21.284Z,2.08
2023-02-11T11:14:03.256Z,2.20
2023-02-11T11:16:33.195Z,1.63
2023-02-11T11:19:06.645Z,1.98
2023-02-11T11:21:43.889Z,2.28
2023-02-11T11:24:25.503Z,2.10
2023-02-11T11:27:00.877Z,2.20
2023-02-11T11:29:39.538Z,2.15
2023-02-11T11:32:32.471Z,2.28
2023-02-11T11:35:03.554Z,2.20
2023-02-11T11:37:36.609Z,2.45
2023-02-11T11:40:22.957Z,1.90
2023-02-11T11:43:12.449Z,2.70
2023-02-11T11:45:53.186Z,2.45
2023-02-11T11:48:38.367Z,2.20
2023-02-11T11:51:10.564Z,2.10
2023-02-11T11:53:59.703Z,1.90
2023-02-11T11:56:31.870Z,1.98
2023-02-11T11:59:03.695Z,1.60
2023-02-11T12:01:48.299Z,2.40
2023-02-11T12:04:47.750Z,1.92
2023-02-11T12:07:25.798Z,2.10
2023-02-11T12:10:15.124Z,2.17
2023-02-11T12:13:00.556Z,1.73
2023-02-11T12:15:33.894Z,2.10
2023-02-11T12:18:27.754Z,1.80
2023-02-11T12:21:07.254Z,1.80
2023-02-11T12:24:23.799Z,2.05
2023-02-11T12:27:15.751Z,1.95
2023-02-11T12:30:20.426Z,1.83
2023-02-11T12:33:03.110Z,1.95
2023-02-11T12:35:40.094Z,1.98
2023-02-11T12:38:33.569Z,2.10
2023-02-11T12:41:15.130Z,2.35
2023-02-11T12:43:45.680Z,2.28
2023-02-11T12:46:28.306Z,2.40
2023-02-11T12:49:31.522Z,2.50
2023-02-11T12:52:19.548Z,3.08
2023-02-11T12:55:15.091Z,2.83
2023-02-11T12:57:44.669Z,2.70
2023-02-11T13:00:24.709Z,2.70
2023-02-11T13:03:16.778Z,2.53
2023-02-11T13:05:58.722Z,2.45
2023-02-11T13:08:31.392Z,3.50
2023-02-11T13:11:08.010Z,2.67
2023-02-11T13:13:46.501Z,2.80
2023-02-11T13:16:35.248Z,2.17
2023-02-11T13:19:22.955Z,2.00
2023-02-11T13:21:59.276Z,2.47
2023-02-11T13:24:36.681Z,2.10
2023-02-11T13:27:07.288Z,2.55
2023-02-11T13:29:47.455Z,2.60
2023-02-11T13:32:15.822Z,2.83
2023-02-11T13:34:43.650Z,3.72
2023-02-11T13:37:32.805Z,2.35
2023-02-11T13:40:03.483Z,2.17
2023-02-11T13:42:33.985Z,2.15
2023-02-11T13:45:01.795Z,2.97
2023-02-11T13:47:33.411Z,1.98
2023-02-11T13:50:05.434Z,2.47
2023-02-11T13:52:37.352Z,2.58
2023-02-11T13:55:21.630Z,2.50
2023-02-11T13:58:07.473Z,2.67
2023-02-11T14:00:34.948Z,2.75
2023-02-11T14:03:29.980Z,3.28
2023-02-11T14:06:28.123Z,3.83
2023-02-11T14:09:07.074Z,2.50
2023-02-11T14:11:40.656Z,2.58
2023-02-11T14:14:21.729Z,2.67
2023-02-11T14:17:07.653Z,2.90
2023-02-11T14:19:36.440Z,2.45
2023-02-11T14:22:16.574Z,3.22
2023-02-11T14:24:47.052Z,2.63
2023-02-11T14:27:32.834Z,2.78
2023-02-11T14:30:18.705Z,3.60
